Time;durP1;ratioP1;P1;durP2;ratioP2;P2;SDS_P1;SDS_P2;PMS_P1;PMS_P2;Temp;Humidity;BMP_temperature;BMP_pressure;BME280_temperature;BME280_humidity;BME280_pressure;Samples;Min_cycle;Max_cycle;Signal;HPM_P1;HPM_P2
2021/03/22 00:01:51;;;;;;;60.30;8.07;;;2.40;99.90;;;;;;5014064;28;20026;-79
2021/03/22 00:04:17;;;;;;;56.92;8.68;;;2.20;99.90;;;;;;5011967;28;20076;-78
2021/03/22 00:06:42;;;;;;;80.30;7.70;;;2.20;99.90;;;;;;5014086;28;20029;-78
2021/03/22 00:09:08;;;;;;;48.85;7.70;;;2.20;99.90;;;;;;5029285;28;20040;-78
2021/03/22 00:11:33;;;;;;;75.93;10.18;;;2.20;99.90;;;;;;5028981;28;20402;-79
2021/03/22 00:13:59;;;;;;;64.75;7.97;;;2.20;99.90;;;;;;5028108;28;20038;-78
2021/03/22 00:16:25;;;;;;;65.03;8.60;;;2.20;99.90;;;;;;5013742;28;20029;-79
2021/03/22 00:18:51;;;;;;;71.30;9.20;;;2.20;99.90;;;;;;5028997;28;20025;-78
2021/03/22 00:21:16;;;;;;;62.67;8.48;;;2.10;99.90;;;;;;5028959;28;20028;-79
2021/03/22 00:23:42;;;;;;;75.05;10.35;;;2.10;99.90;;;;;;5028090;28;20030;-78
2021/03/22 00:26:08;;;;;;;80.95;8.50;;;2.10;99.90;;;;;;5013597;28;20053;-79
2021/03/22 00:28:38;;;;;;;58.65;6.90;;;2.10;99.90;;;;;;5013532;28;20031;-79
2021/03/22 00:31:05;;;;;;;68.25;8.05;;;2.00;99.90;;;;;;5012297;28;20076;-78
2021/03/22 00:33:31;;;;;;;78.60;7.70;;;2.00;99.90;;;;;;5028586;28;20375;-79
2021/03/22 00:35:56;;;;;;;83.57;8.50;;;1.90;99.90;;;;;;5012552;28;20149;-78
2021/03/22 00:38:22;;;;;;;66.88;7.82;;;1.90;99.90;;;;;;5028500;28;20478;-79
2021/03/22 00:40:48;;;;;;;57.92;7.57;;;1.80;99.90;;;;;;5013297;28;20049;-78
2021/03/22 00:43:14;;;;;;;43.67;8.15;;;1.80;99.90;;;;;;5013296;28;20093;-78
2021/03/22 00:45:40;;;;;;;56.55;8.02;;;1.70;99.90;;;;;;5027720;28;20030;-78
2021/03/22 00:48:06;;;;;;;57.70;7.25;;;1.70;99.90;;;;;;5013227;28;20037;-78
2021/03/22 00:50:35;;;;;;;40.17;5.88;;;1.60;99.90;;;;;;5013010;28;20120;-79
2021/03/22 00:53:01;;;;;;;52.13;7.68;;;1.50;99.90;;;;;;5013007;28;20521;-78
2021/03/22 00:55:26;;;;;;;67.65;7.65;;;1.30;99.90;;;;;;5012275;28;20053;-78
2021/03/22 00:57:52;;;;;;;80.72;11.32;;;1.40;99.90;;;;;;5028221;28;20033;-79
2021/03/22 01:00:37;;;;;;;60.72;8.05;;;1.50;99.90;;;;;;5027982;28;20025;-79
2021/03/22 01:03:04;;;;;;;71.13;7.85;;;1.40;99.90;;;;;;5027353;28;20026;-79
2021/03/22 01:05:30;;;;;;;59.35;6.05;;;1.40;99.90;;;;;;5027431;28;20034;-79
2021/03/22 01:07:55;;;;;;;49.85;6.03;;;1.30;99.90;;;;;;5012835;28;20033;-79
2021/03/22 01:10:42;;;;;;;57.10;6.10;;;1.20;99.90;;;;;;5012731;28;20029;-78
2021/03/22 01:13:30;;;;;;;57.42;7.38;;;1.10;99.90;;;;;;5011387;28;20113;-78
2021/03/22 01:15:56;;;;;;;46.20;6.45;;;1.10;99.90;;;;;;5010732;28;20061;-78
2021/03/22 01:18:25;;;;;;;77.53;8.13;;;1.00;99.90;;;;;;5027736;28;20022;-78
2021/03/22 01:20:55;;;;;;;71.53;8.00;;;1.10;99.90;;;;;;5027594;28;20487;-78
2021/03/22 01:23:21;;;;;;;71.95;9.15;;;1.30;99.90;;;;;;5012466;28;20654;-78
2021/03/22 01:25:47;;;;;;;62.10;7.93;;;1.30;99.90;;;;;;5011733;28;20115;-79
2021/03/22 01:28:15;;;;;;;72.60;8.20;;;1.50;99.90;;;;;;5012492;28;20482;-78
2021/03/22 01:30:53;;;;;;;58.17;8.90;;;1.50;99.90;;;;;;5027416;28;20029;-78
2021/03/22 01:33:24;;;;;;;69.68;8.68;;;1.60;99.90;;;;;;5003036;28;20513;-78
2021/03/22 01:35:49;;;;;;;81.40;8.38;;;1.70;99.90;;;;;;5010331;28;20500;-78
2021/03/22 01:38:16;;;;;;;75.82;8.48;;;1.70;99.90;;;;;;5012285;28;20112;-78
2021/03/22 01:41:12;;;;;;;57.40;7.28;;;1.60;99.90;;;;;;5027655;28;20501;-78
2021/03/22 01:44:18;;;;;;;50.05;6.97;;;1.70;99.90;;;;;;5011987;28;20048;-78
2021/03/22 01:46:48;;;;;;;64.40;7.35;;;1.70;99.90;;;;;;4999234;28;20140;-78
2021/03/22 01:49:14;;;;;;;60.70;8.55;;;1.60;99.90;;;;;;5027327;28;20347;-78
2021/03/22 01:51:40;;;;;;;51.80;6.47;;;1.60;99.90;;;;;;5012122;28;20022;-78
2021/03/22 01:54:07;;;;;;;69.93;9.32;;;1.40;99.90;;;;;;5011224;28;20509;-78
2021/03/22 01:56:42;;;;;;;47.90;7.95;;;1.30;99.90;;;;;;5027200;28;20077;-78
2021/03/22 01:59:11;;;;;;;70.85;8.30;;;1.30;99.90;;;;;;5011107;28;20395;-78
2021/03/22 02:01:37;;;;;;;80.70;9.60;;;1.40;99.90;;;;;;5011811;28;20097;-78
2021/03/22 02:04:03;;;;;;;73.22;10.20;;;1.60;99.90;;;;;;5026417;28;20026;-78
2021/03/22 02:06:29;;;;;;;70.10;10.07;;;1.60;99.90;;;;;;5010432;28;20112;-78
2021/03/22 02:08:55;;;;;;;101.47;10.20;;;1.60;99.90;;;;;;5026966;28;20057;-78
2021/03/22 02:11:23;;;;;;;105.85;10.55;;;1.70;99.90;;;;;;5010525;28;20025;-78
2021/03/22 02:13:51;;;;;;;85.75;8.35;;;1.70;99.90;;;;;;5010421;28;20121;-78
2021/03/22 02:16:22;;;;;;;96.63;9.90;;;1.80;99.90;;;;;;5011749;28;20022;-78
2021/03/22 02:18:56;;;;;;;68.43;8.73;;;1.90;99.90;;;;;;5027001;28;20084;-78
2021/03/22 02:21:46;;;;;;;101.07;11.90;;;1.90;99.90;;;;;;5011538;28;20145;-78
2021/03/22 02:24:46;;;;;;;64.03;8.15;;;1.90;99.90;;;;;;5011429;28;20028;-78
2021/03/22 02:27:32;;;;;;;66.22;8.60;;;1.90;99.90;;;;;;5026788;28;20502;-78
2021/03/22 02:30:23;;;;;;;123.22;14.20;;;2.00;99.90;;;;;;5026860;28;20030;-78
2021/03/22 02:32:48;;;;;;;76.85;10.75;;;2.00;99.90;;;;;;5011484;28;20066;-78
2021/03/22 02:35:46;;;;;;;97.00;11.50;;;2.20;99.90;;;;;;5010583;28;20052;-78
2021/03/22 02:38:20;;;;;;;78.60;11.02;;;2.20;99.90;;;;;;5010704;28;20092;-78
2021/03/22 02:40:54;;;;;;;104.55;12.75;;;2.30;99.90;;;;;;5010278;28;20037;-78
2021/03/22 02:43:21;;;;;;;80.22;10.93;;;2.40;99.90;;;;;;5011272;28;20537;-78
2021/03/22 02:45:46;;;;;;;71.38;11.80;;;2.50;99.90;;;;;;5010892;28;20030;-79
2021/03/22 02:48:19;;;;;;;109.93;12.40;;;2.60;99.90;;;;;;5010171;28;20402;-79
2021/03/22 02:50:46;;;;;;;104.53;12.65;;;2.80;99.90;;;;;;5011282;28;20026;-79
2021/03/22 02:53:44;;;;;;;95.57;12.80;;;2.80;99.90;;;;;;5011373;28;20065;-78
2021/03/22 02:56:31;;;;;;;89.38;13.48;;;2.90;99.90;;;;;;5011496;28;20053;-79
2021/03/22 02:59:08;;;;;;;79.18;13.25;;;2.90;99.90;;;;;;5009845;28;20121;-79
2021/03/22 03:01:56;;;;;;;89.00;12.60;;;2.90;99.90;;;;;;5011398;28;20040;-78
2021/03/22 03:04:22;;;;;;;72.40;11.48;;;2.90;99.90;;;;;;5010550;28;20022;-79
2021/03/22 03:06:49;;;;;;;101.68;13.10;;;2.80;99.90;;;;;;5009766;28;20479;-79
2021/03/22 03:09:16;;;;;;;80.75;11.85;;;2.80;99.90;;;;;;5011378;28;20026;-78
2021/03/22 03:11:43;;;;;;;84.65;11.98;;;2.80;99.90;;;;;;5011393;28;20033;-79
2021/03/22 03:14:09;;;;;;;97.60;13.88;;;2.80;99.90;;;;;;5025223;28;20044;-79
2021/03/22 03:16:35;;;;;;;116.20;11.52;;;2.60;99.90;;;;;;5011092;28;20026;-79
2021/03/22 03:19:00;;;;;;;68.38;10.55;;;2.60;99.90;;;;;;5026346;28;20394;-79
2021/03/22 03:21:26;;;;;;;96.35;11.40;;;2.50;99.90;;;;;;5010800;28;20029;-79
2021/03/22 03:23:52;;;;;;;95.78;14.90;;;2.50;99.90;;;;;;5009101;28;20030;-79
2021/03/22 03:26:18;;;;;;;74.18;9.68;;;2.40;99.90;;;;;;5013042;28;20107;-79
2021/03/22 03:28:43;;;;;;;85.25;10.38;;;2.40;99.90;;;;;;5014368;28;20077;-79
2021/03/22 03:31:09;;;;;;;53.88;10.60;;;2.30;99.90;;;;;;5014871;28;20052;-79
2021/03/22 03:33:34;;;;;;;80.45;12.07;;;2.20;99.90;;;;;;5014610;28;20041;-78
2021/03/22 03:36:00;;;;;;;67.57;12.18;;;2.10;99.90;;;;;;5013532;28;20433;-79
2021/03/22 03:38:26;;;;;;;70.72;10.10;;;2.10;99.90;;;;;;5014438;28;20062;-79
2021/03/22 03:40:51;;;;;;;83.82;11.27;;;2.10;99.90;;;;;;5029843;28;20105;-79
2021/03/22 03:43:18;;;;;;;72.05;12.15;;;2.10;99.90;;;;;;5012837;28;20112;-79
2021/03/22 03:45:46;;;;;;;62.13;11.40;;;2.10;99.90;;;;;;5013396;28;20040;-78
2021/03/22 03:48:15;;;;;;;72.10;11.10;;;2.10;99.90;;;;;;5014149;28;20084;-78
2021/03/22 03:50:42;;;;;;;74.78;12.10;;;2.00;99.90;;;;;;5029180;28;20036;-79
2021/03/22 03:53:08;;;;;;;82.28;11.02;;;2.00;99.90;;;;;;5029338;28;20406;-79
2021/03/22 03:55:34;;;;;;;81.43;13.15;;;2.00;99.90;;;;;;5012424;28;20026;-79
2021/03/22 03:58:00;;;;;;;88.80;12.15;;;2.00;99.90;;;;;;5013283;28;20029;-79
2021/03/22 04:00:26;;;;;;;64.53;10.52;;;2.00;99.90;;;;;;5029155;28;20022;-78
2021/03/22 04:02:52;;;;;;;64.63;10.93;;;2.00;99.90;;;;;;5013966;28;20109;-78
2021/03/22 04:05:19;;;;;;;77.80;10.93;;;2.00;99.90;;;;;;5013249;28;20376;-79
2021/03/22 04:07:44;;;;;;;56.63;9.52;;;2.10;99.90;;;;;;5029122;28;20164;-79
2021/03/22 04:10:11;;;;;;;72.15;10.02;;;2.00;99.90;;;;;;5012723;28;20116;-78
2021/03/22 04:12:37;;;;;;;79.15;10.70;;;1.90;99.90;;;;;;5028901;28;20180;-78
2021/03/22 04:15:09;;;;;;;62.88;10.98;;;1.90;99.90;;;;;;5028370;28;20168;-78
2021/03/22 04:17:35;;;;;;;57.35;9.90;;;1.90;99.90;;;;;;5013843;28;20018;-78
2021/03/22 04:20:00;;;;;;;66.38;9.65;;;1.90;99.90;;;;;;5013864;28;20030;-78
2021/03/22 04:22:26;;;;;;;73.18;12.88;;;1.90;99.90;;;;;;5013424;28;20494;-79
2021/03/22 04:24:52;;;;;;;65.75;11.90;;;1.90;99.90;;;;;;5012829;28;20079;-78
2021/03/22 04:27:17;;;;;;;69.68;11.07;;;1.90;99.90;;;;;;5013523;28;20030;-79
2021/03/22 04:29:43;;;;;;;85.07;12.80;;;1.90;99.90;;;;;;5013467;28;20030;-78
2021/03/22 04:32:09;;;;;;;59.53;10.43;;;1.90;99.90;;;;;;5013357;28;20506;-78
2021/03/22 04:34:34;;;;;;;72.18;10.20;;;1.90;99.90;;;;;;5011382;28;20026;-78
2021/03/22 04:37:00;;;;;;;59.83;11.07;;;1.90;99.90;;;;;;5012266;28;20022;-78
2021/03/22 04:39:25;;;;;;;59.90;11.85;;;1.90;99.90;;;;;;5013371;28;20022;-78
2021/03/22 04:41:51;;;;;;;65.70;10.82;;;1.80;99.90;;;;;;5013147;28;20026;-78
2021/03/22 04:44:16;;;;;;;80.75;11.18;;;1.80;99.90;;;;;;5011253;28;20037;-78
2021/03/22 04:46:42;;;;;;;108.25;11.93;;;1.80;99.90;;;;;;5013168;28;20108;-78
2021/03/22 04:49:07;;;;;;;83.18;12.18;;;1.70;99.90;;;;;;5011773;28;20030;-78
2021/03/22 04:51:33;;;;;;;83.18;11.32;;;1.70;99.90;;;;;;5011853;28;20026;-78
2021/03/22 04:53:59;;;;;;;68.20;13.35;;;1.80;99.90;;;;;;5012198;28;20061;-78
2021/03/22 04:56:25;;;;;;;79.57;11.55;;;1.70;99.90;;;;;;5028285;28;20493;-78
2021/03/22 04:58:51;;;;;;;61.35;9.95;;;1.70;99.90;;;;;;5013561;28;20403;-78
2021/03/22 05:01:16;;;;;;;85.28;10.52;;;1.60;99.90;;;;;;5012871;28;20028;-78
2021/03/22 05:03:42;;;;;;;68.57;9.65;;;1.50;99.90;;;;;;5012324;28;20030;-78
2021/03/22 05:06:08;;;;;;;63.15;10.55;;;1.50;99.90;;;;;;5027990;28;20432;-78
2021/03/22 05:08:33;;;;;;;58.90;10.52;;;1.50;99.90;;;;;;5027945;28;20109;-79
2021/03/22 05:11:00;;;;;;;65.03;8.50;;;1.40;99.90;;;;;;5012685;28;20080;-79
2021/03/22 05:13:27;;;;;;;44.22;9.30;;;1.30;99.90;;;;;;5012664;28;20022;-78
2021/03/22 05:15:53;;;;;;;26.05;7.28;;;1.20;99.90;;;;;;5011830;28;20088;-78
2021/03/22 05:18:20;;;;;;;52.28;8.80;;;1.00;99.90;;;;;;5012685;28;20017;-79
2021/03/22 05:20:53;;;;;;;53.70;8.60;;;0.90;99.90;;;;;;5012613;28;20017;-78
2021/03/22 05:23:21;;;;;;;49.83;8.48;;;0.80;99.90;;;;;;5012724;28;20110;-78
2021/03/22 05:25:48;;;;;;;35.15;8.85;;;0.70;99.90;;;;;;5027142;28;20084;-78
2021/03/22 05:28:14;;;;;;;47.53;9.68;;;0.60;99.90;;;;;;5012505;28;20048;-78
2021/03/22 05:30:40;;;;;;;41.20;8.10;;;0.60;99.90;;;;;;5012491;28;20453;-78
2021/03/22 05:33:08;;;;;;;69.78;10.50;;;0.60;99.90;;;;;;5027537;28;20121;-78
2021/03/22 05:35:34;;;;;;;55.72;9.98;;;0.60;99.90;;;;;;5011588;28;20022;-78
2021/03/22 05:38:02;;;;;;;44.20;9.15;;;0.60;99.90;;;;;;5012131;28;20018;-78
2021/03/22 05:40:35;;;;;;;58.25;11.52;;;0.80;99.90;;;;;;5027472;28;20416;-78
2021/03/22 05:43:12;;;;;;;59.95;10.52;;;0.80;99.90;;;;;;5012308;28;20033;-78
2021/03/22 05:45:50;;;;;;;46.70;11.55;;;0.90;99.90;;;;;;5010290;28;20030;-78
2021/03/22 05:48:30;;;;;;;67.10;11.48;;;1.00;99.90;;;;;;5026981;28;20398;-78
2021/03/22 05:50:56;;;;;;;60.83;11.40;;;1.10;99.90;;;;;;5012223;28;20026;-78
2021/03/22 05:53:46;;;;;;;45.75;9.27;;;1.10;99.90;;;;;;5012036;28;20144;-79
2021/03/22 05:56:41;;;;;;;33.45;8.60;;;1.10;99.90;;;;;;5010803;28;20030;-78
2021/03/22 05:59:41;;;;;;;38.50;8.38;;;1.10;99.90;;;;;;4986983;28;20029;-78
2021/03/22 06:02:16;;;;;;;22.83;6.97;;;1.20;99.90;;;;;;5011965;28;20034;-78
2021/03/22 06:04:50;;;;;;;39.90;7.65;;;1.30;99.90;;;;;;5011352;28;20026;-78
2021/03/22 06:07:20;;;;;;;48.60;8.57;;;1.50;99.90;;;;;;5011909;28;20048;-79
2021/03/22 06:09:56;;;;;;;52.30;8.98;;;1.60;99.90;;;;;;5012290;28;20025;-79
2021/03/22 06:12:28;;;;;;;50.63;10.75;;;1.80;99.90;;;;;;5011835;28;20113;-79
2021/03/22 06:15:42;;;;;;;42.15;8.77;;;1.90;99.90;;;;;;5009871;28;20030;-79
2021/03/22 06:18:22;;;;;;;52.45;9.88;;;2.00;99.90;;;;;;4958178;28;20483;-79
2021/03/22 06:20:52;;;;;;;63.13;9.55;;;2.10;99.90;;;;;;5011908;28;20072;-79
2021/03/22 06:23:23;;;;;;;59.22;10.35;;;2.30;99.90;;;;;;5010665;28;20429;-79
2021/03/22 06:25:50;;;;;;;49.40;8.48;;;2.30;99.90;;;;;;5011083;28;20060;-79
2021/03/22 06:28:21;;;;;;;62.42;9.95;;;2.50;99.90;;;;;;5011629;28;20029;-79
2021/03/22 06:31:11;;;;;;;47.35;10.40;;;2.60;99.90;;;;;;5011728;28;20441;-79
2021/03/22 06:33:40;;;;;;;57.33;11.60;;;2.80;99.90;;;;;;5011392;28;20036;-79
2021/03/22 06:36:07;;;;;;;50.42;11.50;;;2.80;99.90;;;;;;5010438;28;20081;-79
2021/03/22 06:38:33;;;;;;;49.30;10.93;;;3.00;99.90;;;;;;5011409;28;20032;-79
2021/03/22 06:41:19;;;;;;;62.80;10.85;;;3.00;99.90;;;;;;5011692;28;20449;-79
2021/03/22 06:43:55;;;;;;;46.38;10.43;;;3.10;99.90;;;;;;5010826;28;20034;-79
2021/03/22 06:46:20;;;;;;;58.80;10.57;;;3.10;99.90;;;;;;5011549;28;20084;-79
2021/03/22 06:49:20;;;;;;;44.42;9.57;;;3.20;99.90;;;;;;5011439;28;20037;-79
2021/03/22 06:52:06;;;;;;;52.40;8.88;;;3.30;99.90;;;;;;5011498;28;20101;-79
2021/03/22 06:54:40;;;;;;;52.50;9.07;;;3.40;99.90;;;;;;5010675;28;20028;-79
2021/03/22 06:57:10;;;;;;;51.08;9.77;;;3.50;99.90;;;;;;5010225;28;20399;-79
2021/03/22 06:59:36;;;;;;;67.63;11.48;;;3.60;99.90;;;;;;5011496;28;20037;-79
2021/03/22 07:02:21;;;;;;;42.83;8.43;;;3.60;99.90;;;;;;5029881;28;20030;-79
2021/03/22 07:04:46;;;;;;;58.90;9.85;;;3.70;99.90;;;;;;5014389;28;20017;-79
2021/03/22 07:07:16;;;;;;;53.80;10.07;;;3.70;99.90;;;;;;5015153;28;20026;-79
2021/03/22 07:10:16;;;;;;;70.95;11.55;;;3.80;99.90;;;;;;5030255;28;20026;-79
2021/03/22 07:12:42;;;;;;;43.42;8.60;;;3.90;99.90;;;;;;5013611;28;20037;-79
2021/03/22 07:15:19;;;;;;;38.20;8.50;;;4.10;99.90;;;;;;5014183;28;20406;-79
2021/03/22 07:18:19;;;;;;;45.90;8.48;;;4.20;99.90;;;;;;5014901;28;20018;-79
2021/03/22 07:21:13;;;;;;;43.20;8.23;;;4.30;99.90;;;;;;5004412;28;20038;-79
2021/03/22 07:23:45;;;;;;;50.65;9.43;;;4.30;99.90;;;;;;5020426;28;20037;-79
2021/03/22 07:26:32;;;;;;;44.38;8.52;;;4.40;99.90;;;;;;5013714;28;20026;-79
2021/03/22 07:29:35;;;;;;;45.72;7.55;;;4.50;99.90;;;;;;5013373;28;20380;-79
2021/03/22 07:32:13;;;;;;;50.33;7.97;;;4.60;99.90;;;;;;5014522;28;20037;-79
2021/03/22 07:35:09;;;;;;;43.17;9.02;;;4.60;99.90;;;;;;5012618;28;20026;-79
2021/03/22 07:38:06;;;;;;;33.60;7.57;;;4.60;99.90;;;;;;5013008;28;20112;-79
2021/03/22 07:40:53;;;;;;;30.33;7.07;;;4.80;99.90;;;;;;5014523;28;20030;-79
2021/03/22 07:43:41;;;;;;;26.55;7.45;;;4.80;99.90;;;;;;5013180;28;20442;-79
2021/03/22 07:46:24;;;;;;;27.58;6.32;;;4.90;99.90;;;;;;5012751;28;20401;-79
2021/03/22 07:49:08;;;;;;;46.15;7.55;;;4.90;99.90;;;;;;5014213;28;20538;-79
2021/03/22 07:51:44;;;;;;;;;;;5.00;99.90;;;;;;5014612;28;20033;-78
2021/03/22 07:54:37;;;;;;;36.13;7.32;;;5.10;99.90;;;;;;5013665;28;19910;-79
2021/03/22 07:57:35;;;;;;;25.25;6.93;;;5.20;99.90;;;;;;5012857;28;20036;-79
2021/03/22 08:00:09;;;;;;;26.23;6.25;;;5.20;99.90;;;;;;5014126;28;20453;-79
2021/03/22 08:02:37;;;;;;;27.65;6.75;;;5.30;99.90;;;;;;5010759;28;20033;-78
2021/03/22 08:05:32;;;;;;;36.92;6.13;;;5.40;99.90;;;;;;5012961;28;20026;-78
2021/03/22 08:08:26;;;;;;;20.90;5.47;;;5.40;99.90;;;;;;5014089;28;20030;-79
2021/03/22 08:11:20;;;;;;;21.58;6.05;;;5.60;99.90;;;;;;5010786;28;20107;-79
2021/03/22 08:14:15;;;;;;;19.70;6.22;;;5.70;99.90;;;;;;5012611;28;20100;-78
2021/03/22 08:16:45;;;;;;;26.63;6.32;;;5.80;99.90;;;;;;5012403;28;20084;-78
2021/03/22 08:19:23;;;;;;;35.95;8.18;;;5.90;99.90;;;;;;5013865;28;20474;-79
2021/03/22 08:21:56;;;;;;;33.22;4.47;;;6.00;99.90;;;;;;5013614;28;20034;-78
2021/03/22 08:24:59;;;;;;;26.15;5.78;;;6.20;99.90;;;;;;5012855;28;20069;-79
2021/03/22 08:27:31;;;;;;;20.98;5.43;;;6.20;99.90;;;;;;5013427;28;20022;-79
2021/03/22 08:30:15;;;;;;;19.67;4.72;;;6.30;99.90;;;;;;5012258;28;20297;-79
2021/03/22 08:33:01;;;;;;;21.63;3.92;;;6.40;99.90;;;;;;5012055;28;20073;-79
2021/03/22 08:35:48;;;;;;;21.38;4.53;;;6.40;99.90;;;;;;5011366;28;20022;-79
2021/03/22 08:38:24;;;;;;;25.52;4.85;;;6.50;99.90;;;;;;5013311;28;20029;-79
2021/03/22 08:40:59;;;;;;;16.88;4.30;;;6.70;99.90;;;;;;5013347;28;20097;-78
2021/03/22 08:43:54;;;;;;;15.25;3.78;;;6.80;99.90;;;;;;5013156;28;20395;-79
2021/03/22 08:46:27;;;;;;;18.98;4.70;;;6.80;99.90;;;;;;5013283;28;20056;-79
2021/03/22 08:48:52;;;;;;;41.65;5.85;;;6.90;99.90;;;;;;5011744;28;20124;-79
2021/03/22 08:51:38;;;;;;;38.88;5.88;;;7.00;99.90;;;;;;5012969;28;20061;-79
2021/03/22 08:54:25;;;;;;;26.25;4.40;;;7.00;99.90;;;;;;5011875;28;20083;-79
2021/03/22 08:57:02;;;;;;;17.40;4.38;;;6.90;99.90;;;;;;5013043;28;20457;-79
2021/03/22 08:59:28;;;;;;;37.03;5.47;;;7.00;99.90;;;;;;5011710;28;20033;-78
2021/03/22 09:02:16;;;;;;;22.88;4.75;;;7.00;99.90;;;;;;5011607;28;20022;-79
2021/03/22 09:04:42;;;;;;;33.90;4.75;;;6.90;99.90;;;;;;5023093;28;20124;-79
2021/03/22 09:07:10;;;;;;;28.00;5.40;;;6.90;99.90;;;;;;5031887;28;20121;-79
2021/03/22 09:09:39;;;;;;;16.42;3.75;;;7.00;99.90;;;;;;5030438;28;20571;-78
2021/03/22 09:12:28;;;;;;;26.77;4.20;;;7.00;99.90;;;;;;5032570;28;20053;-78
2021/03/22 09:14:54;;;;;;;25.80;4.22;;;7.00;99.90;;;;;;5030063;28;20033;-79
2021/03/22 09:17:53;;;;;;;23.27;4.82;;;7.20;99.90;;;;;;5032346;28;20095;-79
2021/03/22 09:20:24;;;;;;;21.52;4.00;;;7.40;99.90;;;;;;4992344;28;20033;-78
2021/03/22 09:22:55;;;;;;;16.15;4.50;;;7.40;99.90;;;;;;5047266;28;20064;-78
2021/03/22 09:25:46;;;;;;;19.00;3.70;;;7.40;99.90;;;;;;5031155;28;20032;-78
2021/03/22 09:28:29;;;;;;;23.35;4.13;;;7.60;99.90;;;;;;5032135;28;20394;-78
2021/03/22 09:31:12;;;;;;;22.73;4.60;;;7.90;99.90;;;;;;5008940;28;20567;-79
2021/03/22 09:33:56;;;;;;;15.63;3.47;;;8.00;99.90;;;;;;5008727;28;20073;-78
2021/03/22 09:36:24;;;;;;;14.85;4.20;;;7.60;99.90;;;;;;5008812;28;20028;-77
2021/03/22 09:38:51;;;;;;;19.13;4.25;;;7.50;99.90;;;;;;5008756;28;20022;-78
2021/03/22 09:41:17;;;;;;;23.98;3.22;;;7.60;99.90;;;;;;5007133;28;20018;-78
2021/03/22 09:44:05;;;;;;;11.30;3.15;;;7.80;99.90;;;;;;5008277;28;20037;-79
2021/03/22 09:46:36;;;;;;;18.35;4.03;;;7.70;99.90;;;;;;5023632;28;20072;-78
2021/03/22 09:49:14;;;;;;;10.10;2.55;;;7.70;99.90;;;;;;5009030;28;20021;-80
2021/03/22 09:51:47;;;;;;;10.80;2.25;;;7.70;99.90;;;;;;5024074;28;20120;-76
2021/03/22 09:54:34;;;;;;;13.73;2.50;;;7.90;99.90;;;;;;5008435;28;20379;-79
2021/03/22 09:57:39;;;;;;;12.00;2.45;;;7.90;99.90;;;;;;4997575;28;20033;-78
2021/03/22 10:00:33;;;;;;;9.68;2.40;;;7.90;99.90;;;;;;5008434;28;20113;-76
2021/03/22 10:03:36;;;;;;;7.90;2.28;;;8.00;99.90;;;;;;5009222;28;20051;-77
2021/03/22 10:06:29;;;;;;;15.13;2.20;;;8.30;99.90;;;;;;5004245;28;20068;-77
2021/03/22 10:08:56;;;;;;;8.90;2.70;;;8.30;99.90;;;;;;4972530;28;20040;-77
2021/03/22 10:11:27;;;;;;;12.52;2.70;;;8.30;99.90;;;;;;5007247;28;20034;-77
2021/03/22 10:14:00;;;;;;;14.57;2.28;;;8.20;99.90;;;;;;5010720;28;20036;-77
2021/03/22 10:16:40;;;;;;;14.35;3.13;;;8.00;99.90;;;;;;5011827;28;20026;-77
2021/03/22 10:19:14;;;;;;;12.90;2.28;;;7.90;99.90;;;;;;5011646;28;20080;-78
2021/03/22 10:21:44;;;;;;;11.35;2.03;;;7.70;99.90;;;;;;5011700;28;20029;-80
2021/03/22 10:24:41;;;;;;;19.67;3.90;;;7.70;99.90;;;;;;5009722;28;20022;-76
2021/03/22 10:27:33;;;;;;;11.98;3.03;;;7.80;99.90;;;;;;5011636;28;20390;-77
2021/03/22 10:30:23;;;;;;;16.85;3.25;;;7.90;99.90;;;;;;5011591;28;20026;-77
2021/03/22 10:33:02;;;;;;;15.55;3.28;;;8.00;99.90;;;;;;5010372;28;20022;-77
2021/03/22 10:35:41;;;;;;;19.90;3.70;;;8.10;99.90;;;;;;5028550;28;20018;-76
2021/03/22 10:38:15;;;;;;;21.13;3.50;;;8.30;99.90;;;;;;5015502;28;20017;-77
2021/03/22 10:40:40;;;;;;;14.73;2.75;;;8.50;99.90;;;;;;5015482;28;20026;-77
2021/03/22 10:43:21;;;;;;;17.70;3.00;;;8.60;99.90;;;;;;5015739;28;20022;-77
2021/03/22 10:45:46;;;;;;;15.65;3.00;;;8.60;99.90;;;;;;5014716;28;20032;-77
2021/03/22 10:48:31;;;;;;;21.50;3.85;;;8.60;99.90;;;;;;5015366;28;20393;-79
2021/03/22 10:51:07;;;;;;;11.48;2.28;;;8.30;99.90;;;;;;5014054;28;20033;-78
2021/03/22 10:53:34;;;;;;;14.32;2.42;;;8.30;99.90;;;;;;5015146;28;20028;-79
2021/03/22 10:56:20;;;;;;;14.05;2.58;;;8.50;99.90;;;;;;5014473;28;20379;-78
2021/03/22 10:58:46;;;;;;;9.15;2.08;;;8.40;99.90;;;;;;5015189;28;20032;-78
2021/03/22 11:01:13;;;;;;;16.77;3.42;;;8.40;99.90;;;;;;5015036;28;20105;-78
2021/03/22 11:03:38;;;;;;;27.23;3.50;;;8.40;99.90;;;;;;5013525;28;20048;-77
2021/03/22 11:06:18;;;;;;;17.85;3.22;;;8.50;99.90;;;;;;5015032;28;20022;-78
2021/03/22 11:08:51;;;;;;;8.57;1.92;;;8.50;99.90;;;;;;5030357;28;20037;-77
2021/03/22 11:11:19;;;;;;;15.23;3.63;;;8.60;99.90;;;;;;5030119;28;20030;-77
2021/03/22 11:13:49;;;;;;;13.05;2.50;;;8.50;99.90;;;;;;5014181;28;20038;-78
2021/03/22 11:16:35;;;;;;;11.90;2.35;;;8.80;99.90;;;;;;5014961;28;20486;-77
2021/03/22 11:19:23;;;;;;;11.85;2.17;;;8.90;99.90;;;;;;5015117;28;20022;-77
2021/03/22 11:21:50;;;;;;;16.23;2.67;;;8.70;99.90;;;;;;5013599;28;20025;-77
2021/03/22 11:24:19;;;;;;;19.33;2.83;;;8.40;99.90;;;;;;5014097;28;20456;-77
2021/03/22 11:26:59;;;;;;;29.10;3.35;;;8.20;99.90;;;;;;5013545;28;20036;-77
2021/03/22 11:29:25;;;;;;;23.42;2.63;;;8.20;99.90;;;;;;5014730;28;20029;-78
2021/03/22 11:32:00;;;;;;;13.70;2.85;;;8.40;99.90;;;;;;5014715;28;20030;-78
2021/03/22 11:34:33;;;;;;;22.38;3.20;;;8.90;99.90;;;;;;5013647;28;20026;-77
2021/03/22 11:37:20;;;;;;;22.73;3.20;;;9.30;99.90;;;;;;5014610;28;20156;-78
2021/03/22 11:39:54;;;;;;;12.77;2.60;;;9.10;99.90;;;;;;5014376;28;20260;-77
2021/03/22 11:42:31;;;;;;;15.93;3.20;;;9.20;99.90;;;;;;5014395;28;20022;-78
2021/03/22 11:44:57;;;;;;;14.98;2.38;;;9.50;99.90;;;;;;5013419;28;20521;-79
2021/03/22 11:47:39;;;;;;;18.27;2.70;;;9.90;99.90;;;;;;5013683;28;20038;-78
2021/03/22 11:50:24;;;;;;;16.85;2.35;;;9.90;99.90;;;;;;5014230;28;20018;-78
2021/03/22 11:53:09;;;;;;;14.07;2.80;;;10.20;99.90;;;;;;5014123;28;20018;-78
2021/03/22 11:55:46;;;;;;;16.48;2.45;;;9.90;99.90;;;;;;5013523;28;20025;-79
2021/03/22 11:58:36;;;;;;;20.88;2.78;;;9.40;99.90;;;;;;5014199;28;20537;-77
2021/03/22 12:01:25;;;;;;;18.70;2.15;;;9.40;99.90;;;;;;5029272;28;20421;-77
2021/03/22 12:04:05;;;;;;;11.52;1.55;;;9.50;99.90;;;;;;5013316;28;20026;-77
2021/03/22 12:06:49;;;;;;;16.63;2.90;;;9.30;99.90;;;;;;5012724;28;20406;-77
2021/03/22 12:09:16;;;;;;;18.85;2.72;;;9.40;99.90;;;;;;5013795;28;20033;-77
2021/03/22 12:11:43;;;;;;;13.02;2.85;;;9.40;99.90;;;;;;5029143;28;20025;-77
2021/03/22 12:14:08;;;;;;;26.15;3.35;;;9.60;99.90;;;;;;5011501;28;20037;-77
2021/03/22 12:16:36;;;;;;;9.50;2.53;;;9.60;99.90;;;;;;5013881;28;20026;-77
2021/03/22 12:19:21;;;;;;;23.42;3.45;;;9.60;99.90;;;;;;5013671;28;20479;-78
2021/03/22 12:21:47;;;;;;;26.23;4.40;;;9.60;99.90;;;;;;5007679;28;20486;-78
2021/03/22 12:24:14;;;;;;;19.27;3.22;;;9.50;99.90;;;;;;5009431;28;20026;-76
2021/03/22 12:26:40;;;;;;;26.85;3.30;;;9.90;99.90;;;;;;5010068;28;20117;-79
2021/03/22 12:29:06;;;;;;;12.15;2.30;;;10.00;99.90;;;;;;5025411;28;20117;-78
2021/03/22 12:31:39;;;;;;;21.33;2.70;;;9.70;99.90;;;;;;5010258;28;20462;-78
2021/03/22 12:34:08;;;;;;;17.30;2.67;;;9.60;99.90;;;;;;5009253;28;20030;-79
2021/03/22 12:36:35;;;;;;;15.85;2.72;;;9.40;99.90;;;;;;5025098;28;20083;-77
2021/03/22 12:39:05;;;;;;;20.40;2.50;;;9.30;99.90;;;;;;5009673;28;20109;-78
2021/03/22 12:41:33;;;;;;;24.65;2.40;;;9.30;99.90;;;;;;5010137;28;20116;-79
2021/03/22 12:44:03;;;;;;;15.05;2.53;;;9.20;99.90;;;;;;5009064;28;20386;-77
2021/03/22 12:46:29;;;;;;;18.92;3.13;;;9.20;99.90;;;;;;5010091;28;20026;-77
2021/03/22 12:48:55;;;;;;;11.30;2.20;;;9.40;99.90;;;;;;5008394;28;20053;-77
2021/03/22 12:51:21;;;;;;;9.30;1.92;;;9.60;99.90;;;;;;5010412;28;20080;-77
2021/03/22 12:53:47;;;;;;;12.52;2.08;;;9.70;99.90;;;;;;5013108;28;20030;-79
2021/03/22 12:56:14;;;;;;;12.57;2.85;;;9.40;99.90;;;;;;5013160;28;20470;-78
2021/03/22 12:58:40;;;;;;;9.90;2.20;;;9.10;99.90;;;;;;5012014;28;20014;-79
2021/03/22 13:01:06;;;;;;;20.08;2.75;;;8.90;99.90;;;;;;5028173;28;20084;-79
2021/03/22 13:03:32;;;;;;;16.88;3.17;;;8.80;99.90;;;;;;5012892;28;20530;-78
2021/03/22 13:05:58;;;;;;;14.30;3.20;;;8.60;99.90;;;;;;5012157;28;20491;-78
2021/03/22 13:08:27;;;;;;;14.27;2.17;;;8.60;99.90;;;;;;5011383;28;20116;-79
2021/03/22 13:10:54;;;;;;;20.13;2.20;;;8.50;99.90;;;;;;5012742;28;20026;-80
2021/03/22 13:13:20;;;;;;;17.77;2.60;;;8.60;99.90;;;;;;5027802;28;20037;-79
2021/03/22 13:15:51;;;;;;;13.85;3.17;;;8.60;99.90;;;;;;5011946;28;20038;-80
2021/03/22 13:18:20;;;;;;;7.32;1.50;;;8.50;99.90;;;;;;5027816;28;20030;-79